Time;durP1;ratioP1;P1;durP2;ratioP2;P2;SDS_P1;SDS_P2;PMS_P1;PMS_P2;Temp;Humidity;BMP_temperature;BMP_pressure;BME280_temperature;BME280_humidity;BME280_pressure;Samples;Min_cycle;Max_cycle;Signal;HPM_P1;HPM_P2
2021/06/08 00:01:19;;;;;;;7.78;5.68;;;18.00;81.00;;;;;;5056453;28;20029;-73
2021/06/08 00:03:45;;;;;;;7.13;5.55;;;18.00;81.10;;;;;;5056480;28;20035;-73
2021/06/08 00:06:11;;;;;;;7.75;5.32;;;18.00;81.10;;;;;;5056508;28;20028;-73
2021/06/08 00:08:37;;;;;;;7.65;5.85;;;18.00;81.10;;;;;;5056220;28;20074;-73
2021/06/08 00:11:03;;;;;;;10.52;6.50;;;18.00;81.10;;;;;;5056240;28;20028;-73
2021/06/08 00:13:30;;;;;;;8.60;5.90;;;18.00;81.00;;;;;;5055913;28;20021;-73
2021/06/08 00:15:56;;;;;;;6.55;5.95;;;18.00;81.00;;;;;;5055748;28;20060;-73
2021/06/08 00:18:21;;;;;;;8.88;6.25;;;17.90;81.00;;;;;;5055932;28;20064;-72
2021/06/08 00:20:47;;;;;;;6.95;6.25;;;17.90;81.00;;;;;;5055915;28;20029;-73
2021/06/08 00:23:13;;;;;;;9.23;6.30;;;17.90;81.10;;;;;;5056092;28;20029;-73
2021/06/08 00:25:39;;;;;;;8.98;6.18;;;17.90;81.70;;;;;;5055360;28;20069;-73
2021/06/08 00:28:07;;;;;;;11.48;5.50;;;17.90;81.10;;;;;;5055827;28;20021;-73
2021/06/08 00:30:33;;;;;;;9.85;5.47;;;17.90;81.10;;;;;;5055583;28;20032;-73
2021/06/08 00:32:59;;;;;;;7.95;5.97;;;17.80;81.10;;;;;;5055930;28;20025;-73
2021/06/08 00:35:27;;;;;;;6.57;5.38;;;17.80;81.00;;;;;;5055446;28;20032;-73
2021/06/08 00:37:52;;;;;;;8.13;5.38;;;17.80;81.00;;;;;;5055884;28;20363;-73
2021/06/08 00:40:18;;;;;;;7.13;5.82;;;17.80;81.10;;;;;;5055772;28;20029;-73
2021/06/08 00:42:45;;;;;;;10.30;6.10;;;17.70;81.10;;;;;;5055341;28;20036;-73
2021/06/08 00:45:11;;;;;;;7.47;5.47;;;17.70;81.10;;;;;;5055852;28;20037;-73
2021/06/08 00:47:37;;;;;;;6.93;5.60;;;17.70;81.20;;;;;;5055629;28;20032;-73
2021/06/08 00:50:04;;;;;;;7.90;5.68;;;17.70;81.30;;;;;;5055554;28;20030;-73
2021/06/08 00:52:29;;;;;;;9.38;6.38;;;17.60;81.40;;;;;;5055234;28;20037;-73
2021/06/08 00:54:55;;;;;;;7.15;5.95;;;17.60;81.50;;;;;;5054986;28;20087;-73
2021/06/08 00:57:21;;;;;;;6.70;5.68;;;17.60;81.60;;;;;;5055195;28;20037;-83
2021/06/08 00:59:47;;;;;;;7.97;6.28;;;17.50;81.70;;;;;;5055294;28;20021;-73
2021/06/08 01:02:15;;;;;;;7.07;5.78;;;17.50;81.90;;;;;;5054906;28;20471;-73
2021/06/08 01:04:41;;;;;;;8.85;6.15;;;17.40;81.90;;;;;;5052998;28;20064;-80
2021/06/08 01:07:07;;;;;;;6.60;5.93;;;17.40;82.00;;;;;;5055220;28;20064;-72
2021/06/08 01:09:32;;;;;;;7.00;6.20;;;17.40;82.20;;;;;;5054855;28;20087;-73
2021/06/08 01:11:58;;;;;;;9.00;6.43;;;17.40;82.30;;;;;;5054985;28;20029;-73
2021/06/08 01:14:24;;;;;;;7.88;6.53;;;17.40;82.40;;;;;;5054584;28;20464;-74
2021/06/08 01:16:50;;;;;;;7.40;6.40;;;17.40;82.40;;;;;;5054607;28;20036;-73
2021/06/08 01:19:17;;;;;;;7.70;6.90;;;17.40;82.40;;;;;;5054482;28;20029;-72
2021/06/08 01:21:43;;;;;;;8.25;6.75;;;17.40;82.40;;;;;;5054594;28;20028;-73
2021/06/08 01:24:10;;;;;;;9.02;7.05;;;17.40;83.00;;;;;;5054835;28;20043;-73
2021/06/08 01:26:37;;;;;;;10.50;7.53;;;17.40;82.50;;;;;;5054878;28;20367;-73
2021/06/08 01:29:04;;;;;;;13.32;7.50;;;17.30;82.50;;;;;;5054583;28;20022;-73
2021/06/08 01:31:33;;;;;;;8.52;6.93;;;17.40;82.70;;;;;;5054500;28;20126;-73
2021/06/08 01:34:00;;;;;;;9.00;7.13;;;17.40;82.80;;;;;;5054561;28;20104;-73
2021/06/08 01:36:34;;;;;;;9.75;7.05;;;17.40;82.80;;;;;;5054303;28;20061;-73
2021/06/08 01:39:00;;;;;;;7.82;6.10;;;17.40;82.90;;;;;;5054757;28;20021;-72
2021/06/08 01:41:26;;;;;;;7.13;6.43;;;17.50;82.80;;;;;;5052679;28;20572;-73
2021/06/08 01:43:53;;;;;;;10.00;6.68;;;17.50;82.80;;;;;;5054912;28;20414;-73
2021/06/08 01:46:21;;;;;;;8.60;6.07;;;17.60;82.90;;;;;;5054552;28;20071;-73
2021/06/08 01:48:47;;;;;;;7.80;5.78;;;17.60;82.80;;;;;;5054080;28;20037;-73
2021/06/08 01:51:31;;;;;;;6.57;5.90;;;17.60;82.70;;;;;;5054314;28;20095;-73
2021/06/08 01:54:20;;;;;;;8.32;6.55;;;17.60;82.60;;;;;;5054365;28;20079;-73
2021/06/08 01:56:55;;;;;;;8.35;6.38;;;17.70;82.60;;;;;;5053951;28;20029;-73
2021/06/08 01:59:31;;;;;;;9.98;6.63;;;17.70;82.60;;;;;;5069469;28;20032;-73
2021/06/08 02:02:11;;;;;;;8.57;6.70;;;17.70;82.70;;;;;;5053937;28;20033;-73
2021/06/08 02:05:00;;;;;;;8.10;6.40;;;17.70;82.70;;;;;;5068503;28;20120;-72
2021/06/08 02:07:25;;;;;;;6.95;6.28;;;17.70;82.70;;;;;;5054151;28;20086;-83
2021/06/08 02:09:54;;;;;;;8.77;6.55;;;17.70;82.70;;;;;;5053865;28;20045;-73
2021/06/08 02:12:21;;;;;;;8.93;6.47;;;17.70;82.70;;;;;;5053819;28;20087;-73
2021/06/08 02:15:08;;;;;;;7.30;6.50;;;17.70;82.80;;;;;;5053366;28;20471;-73
2021/06/08 02:17:45;;;;;;;13.25;7.10;;;17.70;82.90;;;;;;5053114;28;20112;-73
2021/06/08 02:20:31;;;;;;;9.45;7.50;;;17.70;82.90;;;;;;5053865;28;20056;-73
2021/06/08 02:23:03;;;;;;;10.48;8.18;;;17.70;82.90;;;;;;5052418;28;20039;-72
2021/06/08 02:25:31;;;;;;;9.43;8.25;;;17.60;83.00;;;;;;5053521;28;20094;-73
2021/06/08 02:28:00;;;;;;;13.93;11.27;;;17.60;83.20;;;;;;5053599;28;20086;-72
2021/06/08 02:30:27;;;;;;;15.52;13.13;;;17.60;83.40;;;;;;5053174;28;20059;-72
2021/06/08 02:32:55;;;;;;;14.77;11.63;;;17.70;83.60;;;;;;5053481;28;20040;-72
2021/06/08 02:35:23;;;;;;;13.85;9.23;;;17.70;83.60;;;;;;5069163;28;20027;-72
2021/06/08 02:37:50;;;;;;;9.15;8.18;;;17.70;83.50;;;;;;5053379;28;20033;-72
2021/06/08 02:40:17;;;;;;;10.88;9.32;;;17.70;83.50;;;;;;5053379;28;20116;-74
2021/06/08 02:42:44;;;;;;;15.20;9.60;;;17.80;83.50;;;;;;5053415;28;20029;-72
2021/06/08 02:45:10;;;;;;;16.73;15.02;;;17.80;83.30;;;;;;5053533;28;20033;-74
2021/06/08 02:47:37;;;;;;;11.32;8.90;;;17.80;83.30;;;;;;5053201;28;20029;-74
2021/06/08 02:50:06;;;;;;;17.55;14.60;;;17.80;83.20;;;;;;5053352;28;20360;-74
2021/06/08 02:52:32;;;;;;;14.30;12.70;;;17.90;83.10;;;;;;5053228;28;20040;-72
2021/06/08 02:54:59;;;;;;;10.98;9.82;;;17.90;83.10;;;;;;5053345;28;20029;-72
2021/06/08 02:57:26;;;;;;;8.85;7.68;;;17.90;83.00;;;;;;5053209;28;20057;-72
2021/06/08 03:00:01;;;;;;;10.13;8.05;;;18.00;82.90;;;;;;5053190;28;20029;-72
2021/06/08 03:02:27;;;;;;;8.15;7.35;;;18.10;82.80;;;;;;5053263;28;20040;-72
2021/06/08 03:05:03;;;;;;;9.27;7.38;;;18.20;82.50;;;;;;5053106;28;20033;-72
2021/06/08 03:07:34;;;;;;;9.88;7.72;;;18.20;82.10;;;;;;5053343;28;20017;-72
2021/06/08 03:10:06;;;;;;;10.10;7.63;;;18.30;81.80;;;;;;5052809;28;20386;-73
2021/06/08 03:12:37;;;;;;;9.55;7.30;;;18.30;81.60;;;;;;5053353;28;20402;-73
2021/06/08 03:15:06;;;;;;;7.97;6.80;;;18.40;81.40;;;;;;5053117;28;20032;-73
2021/06/08 03:17:34;;;;;;;9.38;7.10;;;18.30;81.20;;;;;;5053015;28;20379;-73
2021/06/08 03:20:11;;;;;;;10.25;7.10;;;18.30;81.10;;;;;;5053062;28;20108;-72
2021/06/08 03:22:38;;;;;;;9.68;6.97;;;18.40;81.10;;;;;;5052975;28;20033;-72
2021/06/08 03:25:04;;;;;;;9.20;6.85;;;18.50;81.10;;;;;;5052558;28;20028;-72
2021/06/08 03:27:31;;;;;;;8.20;7.00;;;18.50;80.80;;;;;;5053627;28;20025;-74
2021/06/08 03:29:59;;;;;;;10.77;7.20;;;18.60;80.60;;;;;;5056545;28;20029;-74
2021/06/08 03:32:27;;;;;;;11.18;7.57;;;18.60;80.30;;;;;;5056944;28;20021;-74
2021/06/08 03:34:53;;;;;;;10.43;7.38;;;18.70;80.10;;;;;;5056731;28;20033;-73
2021/06/08 03:37:20;;;;;;;13.48;7.47;;;18.80;80.00;;;;;;5056622;28;20029;-73
2021/06/08 03:39:48;;;;;;;8.68;7.65;;;18.80;79.70;;;;;;5056643;28;20472;-74
2021/06/08 03:42:15;;;;;;;11.88;8.20;;;18.80;79.50;;;;;;5055277;28;20086;-74
2021/06/08 03:44:40;;;;;;;8.77;7.47;;;18.80;79.40;;;;;;5056487;28;20108;-74
2021/06/08 03:47:07;;;;;;;8.38;7.47;;;18.80;79.30;;;;;;5056251;28;20112;-73
2021/06/08 03:49:33;;;;;;;10.38;7.55;;;18.90;79.10;;;;;;5055206;28;20029;-74
2021/06/08 03:51:59;;;;;;;8.52;7.63;;;18.90;79.20;;;;;;5056421;28;20025;-73
2021/06/08 03:54:25;;;;;;;8.02;7.05;;;19.00;79.20;;;;;;5056070;28;20096;-75
2021/06/08 03:56:53;;;;;;;11.60;8.38;;;19.10;79.00;;;;;;5056158;28;20029;-73
2021/06/08 03:59:23;;;;;;;11.07;7.32;;;19.20;78.70;;;;;;5056347;28;20068;-73
2021/06/08 04:01:52;;;;;;;10.68;7.25;;;19.30;78.40;;;;;;5056017;28;20036;-73
2021/06/08 04:04:18;;;;;;;10.60;7.45;;;19.30;78.30;;;;;;5056149;28;20033;-73
2021/06/08 04:06:46;;;;;;;10.63;8.27;;;19.40;78.10;;;;;;5055802;28;20044;-74
2021/06/08 04:09:12;;;;;;;8.25;7.45;;;19.40;77.80;;;;;;5056093;28;20499;-73
2021/06/08 04:11:41;;;;;;;9.73;7.38;;;19.50;77.60;;;;;;5055736;28;20083;-73
2021/06/08 04:14:09;;;;;;;11.43;7.93;;;19.50;77.40;;;;;;5071433;28;20059;-73
2021/06/08 04:16:35;;;;;;;9.85;7.50;;;19.50;77.30;;;;;;5055972;28;20037;-74
2021/06/08 04:19:02;;;;;;;9.63;7.07;;;19.50;77.20;;;;;;5054809;28;20037;-72
2021/06/08 04:21:28;;;;;;;10.75;7.50;;;19.50;77.10;;;;;;5055502;28;20040;-73
2021/06/08 04:23:57;;;;;;;8.65;7.15;;;19.50;77.10;;;;;;5055508;28;20132;-73
2021/06/08 04:26:23;;;;;;;10.25;7.60;;;19.40;77.10;;;;;;5055849;28;20036;-74
2021/06/08 04:28:49;;;;;;;8.30;7.47;;;19.30;77.30;;;;;;5068528;28;20050;-74
2021/06/08 04:31:15;;;;;;;8.90;8.00;;;19.30;77.30;;;;;;5086923;28;20020;-74
2021/06/08 04:33:45;;;;;;;10.63;7.53;;;19.30;77.40;;;;;;5095819;28;20100;-74
2021/06/08 04:36:11;;;;;;;11.18;8.10;;;19.30;77.50;;;;;;5095549;28;20524;-73
2021/06/08 04:38:38;;;;;;;12.13;7.88;;;19.30;77.60;;;;;;5094960;28;20020;-75
2021/06/08 04:41:04;;;;;;;9.50;8.15;;;19.30;77.70;;;;;;5085556;28;20056;-74
2021/06/08 04:43:30;;;;;;;9.88;7.93;;;19.30;77.70;;;;;;5055283;28;20517;-74
2021/06/08 04:46:05;;;;;;;11.15;8.13;;;19.40;77.80;;;;;;5053903;28;20033;-73
2021/06/08 04:48:30;;;;;;;13.18;8.55;;;19.50;77.70;;;;;;5055376;28;20068;-73
2021/06/08 04:50:56;;;;;;;12.73;8.00;;;19.60;77.50;;;;;;5062813;28;20052;-74
2021/06/08 04:53:22;;;;;;;9.35;7.85;;;19.70;77.10;;;;;;5064833;28;20418;-74
2021/06/08 04:55:49;;;;;;;9.90;7.60;;;19.70;76.90;;;;;;5062570;28;20074;-74
2021/06/08 04:58:15;;;;;;;9.57;8.05;;;19.80;76.70;;;;;;5064019;28;20055;-74
2021/06/08 05:00:55;;;;;;;8.32;7.53;;;19.90;76.50;;;;;;5069108;28;20056;-73
2021/06/08 05:03:25;;;;;;;8.10;7.18;;;20.00;76.20;;;;;;5066931;28;20033;-73
2021/06/08 05:05:55;;;;;;;12.57;7.47;;;20.10;75.90;;;;;;5072432;28;20032;-73
2021/06/08 05:08:24;;;;;;;9.73;7.45;;;20.20;75.70;;;;;;5064642;28;20384;-73
2021/06/08 05:11:13;;;;;;;8.32;7.53;;;20.40;75.30;;;;;;5071285;28;20052;-74
2021/06/08 05:13:45;;;;;;;9.00;7.53;;;20.50;74.90;;;;;;5074958;28;20456;-74
2021/06/08 05:16:11;;;;;;;8.85;7.25;;;20.70;74.70;;;;;;5074926;28;20032;-73
2021/06/08 05:18:39;;;;;;;10.98;7.57;;;20.90;74.40;;;;;;5074803;28;20024;-74
2021/06/08 05:21:08;;;;;;;8.25;7.43;;;21.00;74.00;;;;;;5074853;28;20028;-74
2021/06/08 05:23:35;;;;;;;8.40;6.90;;;21.20;73.50;;;;;;5074591;28;20029;-74
2021/06/08 05:26:01;;;;;;;11.57;7.53;;;21.40;73.20;;;;;;5074172;28;20028;-74
2021/06/08 05:28:27;;;;;;;7.80;7.00;;;21.60;72.80;;;;;;5074389;28;20031;-74
2021/06/08 05:30:53;;;;;;;8.88;6.82;;;21.70;72.30;;;;;;5074203;28;20032;-74
2021/06/08 05:33:24;;;;;;;10.98;6.13;;;21.90;71.90;;;;;;5075032;28;20481;-74
2021/06/08 05:35:56;;;;;;;9.10;6.10;;;22.10;71.50;;;;;;5074189;28;20100;-75
2021/06/08 05:38:40;;;;;;;8.93;6.40;;;22.40;70.80;;;;;;5072703;28;20066;-74
2021/06/08 05:41:08;;;;;;;6.75;6.10;;;22.50;70.10;;;;;;5074451;28;20100;-74
2021/06/08 05:43:34;;;;;;;8.15;6.60;;;22.60;69.80;;;;;;5064636;28;20028;-75
2021/06/08 05:46:00;;;;;;;11.30;7.30;;;22.60;69.40;;;;;;5063808;28;20024;-75
2021/06/08 05:48:28;;;;;;;6.95;6.28;;;22.60;69.10;;;;;;5062387;28;20021;-75
2021/06/08 05:50:56;;;;;;;10.77;6.70;;;22.60;68.90;;;;;;5063498;28;20021;-74
2021/06/08 05:53:23;;;;;;;13.35;6.78;;;22.50;68.80;;;;;;5060990;28;20668;-72
2021/06/08 05:55:50;;;;;;;7.53;6.00;;;22.50;68.90;;;;;;5063008;28;20064;-73
2021/06/08 05:58:21;;;;;;;8.00;6.68;;;22.50;69.00;;;;;;5061861;28;20398;-73
2021/06/08 06:00:47;;;;;;;11.13;6.85;;;22.40;69.10;;;;;;5069692;28;20020;-74
2021/06/08 06:03:14;;;;;;;8.50;6.40;;;22.50;69.10;;;;;;5066168;28;20055;-73
2021/06/08 06:05:42;;;;;;;7.07;6.10;;;22.50;69.10;;;;;;5072445;28;20032;-74
2021/06/08 06:08:08;;;;;;;9.02;6.05;;;22.50;69.20;;;;;;5074021;28;20374;-73
2021/06/08 06:10:33;;;;;;;8.20;6.85;;;22.50;69.00;;;;;;5074189;28;20108;-73
2021/06/08 06:13:01;;;;;;;6.90;5.75;;;22.50;69.00;;;;;;5073011;28;20028;-75
2021/06/08 06:15:28;;;;;;;8.35;6.65;;;22.50;69.10;;;;;;5073642;28;20025;-75
2021/06/08 06:17:54;;;;;;;7.60;6.70;;;22.40;69.10;;;;;;5073290;28;20056;-73
2021/06/08 06:20:20;;;;;;;8.35;6.45;;;22.50;69.20;;;;;;5073571;28;20077;-73
2021/06/08 06:22:47;;;;;;;9.65;7.47;;;22.50;69.30;;;;;;5073354;28;20029;-73
2021/06/08 06:25:13;;;;;;;11.15;6.47;;;22.50;69.40;;;;;;5073244;28;20049;-73
2021/06/08 06:27:41;;;;;;;7.07;6.35;;;22.40;69.20;;;;;;5073523;28;20039;-73
2021/06/08 06:30:10;;;;;;;8.73;6.78;;;22.40;69.20;;;;;;5073227;28;20467;-76
2021/06/08 06:32:37;;;;;;;10.13;7.20;;;22.40;69.30;;;;;;5073480;28;20059;-74
2021/06/08 06:35:08;;;;;;;6.70;6.10;;;22.50;69.40;;;;;;5073318;28;20059;-74
2021/06/08 06:37:35;;;;;;;8.50;6.65;;;22.50;69.20;;;;;;5073518;28;20028;-74
2021/06/08 06:40:05;;;;;;;8.70;6.40;;;22.50;69.10;;;;;;5072893;28;20573;-73
2021/06/08 06:42:38;;;;;;;7.80;6.15;;;22.50;69.00;;;;;;5073315;28;20077;-73
2021/06/08 06:45:08;;;;;;;6.97;6.28;;;22.40;68.90;;;;;;5073100;28;20111;-74
2021/06/08 06:47:35;;;;;;;7.72;6.05;;;22.40;69.20;;;;;;5073460;28;20029;-73
2021/06/08 06:50:01;;;;;;;9.18;6.85;;;22.40;69.30;;;;;;5073224;28;20052;-73
2021/06/08 06:52:26;;;;;;;7.82;6.18;;;22.40;69.20;;;;;;5073354;28;20459;-74
2021/06/08 06:54:52;;;;;;;9.55;6.20;;;22.40;69.10;;;;;;5072852;28;20029;-74
2021/06/08 06:57:18;;;;;;;6.75;6.05;;;22.40;69.00;;;;;;5073296;28;20025;-74
2021/06/08 06:59:44;;;;;;;6.45;5.85;;;22.40;69.00;;;;;;5070903;28;20075;-75
2021/06/08 07:02:15;;;;;;;6.75;5.75;;;22.50;69.00;;;;;;5073915;28;20043;-74
2021/06/08 07:04:42;;;;;;;6.97;6.00;;;22.50;68.90;;;;;;5077449;28;20032;-74
2021/06/08 07:07:10;;;;;;;5.65;5.10;;;22.60;69.00;;;;;;5076693;28;20363;-72
2021/06/08 07:09:36;;;;;;;8.07;5.80;;;22.60;68.60;;;;;;5077182;28;20017;-72
2021/06/08 07:12:03;;;;;;;6.63;5.93;;;22.70;68.40;;;;;;5076950;28;20474;-72
2021/06/08 07:14:30;;;;;;;5.70;5.15;;;22.70;68.60;;;;;;5076073;28;20032;-73
2021/06/08 07:16:56;;;;;;;7.70;5.40;;;22.70;68.50;;;;;;5076854;28;20056;-74
2021/06/08 07:19:24;;;;;;;5.82;5.22;;;22.80;68.40;;;;;;5076941;28;20056;-72
2021/06/08 07:21:51;;;;;;;6.50;5.38;;;22.80;68.00;;;;;;5077072;28;20032;-75
2021/06/08 07:24:17;;;;;;;8.88;5.85;;;22.90;67.80;;;;;;5076577;28;20032;-75
2021/06/08 07:26:43;;;;;;;8.00;6.40;;;22.90;68.00;;;;;;5075658;28;20033;-74
2021/06/08 07:29:13;;;;;;;7.72;5.15;;;23.00;67.60;;;;;;5077160;28;20033;-75
2021/06/08 07:31:48;;;;;;;6.32;5.60;;;23.00;67.50;;;;;;5092562;28;20020;-74
2021/06/08 07:34:22;;;;;;;6.63;5.93;;;23.10;67.40;;;;;;5064567;28;20032;-74
2021/06/08 07:36:49;;;;;;;6.13;5.53;;;23.20;67.40;;;;;;5064134;28;20021;-75
2021/06/08 07:39:21;;;;;;;8.07;5.47;;;23.20;67.10;;;;;;5066104;28;20473;-75
2021/06/08 07:42:05;;;;;;;7.53;5.20;;;23.20;67.00;;;;;;5066221;28;20036;-74
2021/06/08 07:44:35;;;;;;;6.43;5.38;;;23.30;67.10;;;;;;5063645;28;20059;-74
2021/06/08 07:47:04;;;;;;;5.88;5.38;;;23.40;67.10;;;;;;5067051;28;20506;-74
2021/06/08 07:49:32;;;;;;;5.55;5.05;;;23.50;66.80;;;;;;5064075;28;20025;-74
2021/06/08 07:51:59;;;;;;;7.45;5.53;;;23.60;66.50;;;;;;5064563;28;20032;-74
2021/06/08 07:54:27;;;;;;;6.90;5.65;;;23.70;66.50;;;;;;5065923;28;20025;-74
2021/06/08 07:56:53;;;;;;;6.75;5.03;;;23.80;66.30;;;;;;5066093;28;20024;-74
2021/06/08 07:59:19;;;;;;;7.60;5.68;;;24.00;66.10;;;;;;5062891;28;20025;-74
2021/06/08 08:01:45;;;;;;;7.68;5.22;;;24.00;65.70;;;;;;5064111;28;20032;-82
2021/06/08 08:04:18;;;;;;;7.15;5.25;;;24.20;65.50;;;;;;5066017;28;20478;-75
2021/06/08 08:06:45;;;;;;;7.97;5.43;;;24.20;65.10;;;;;;5065272;28;20352;-75
2021/06/08 08:09:11;;;;;;;7.75;4.90;;;24.40;64.80;;;;;;5063784;28;20111;-74
2021/06/08 08:11:41;;;;;;;6.85;4.82;;;24.50;64.40;;;;;;5063987;28;20020;-75
2021/06/08 08:14:08;;;;;;;5.38;4.88;;;24.70;64.10;;;;;;5063830;28;20052;-76
2021/06/08 08:16:35;;;;;;;6.28;4.47;;;24.90;63.60;;;;;;5063921;28;20024;-74
2021/06/08 08:19:01;;;;;;;7.40;4.38;;;25.10;62.90;;;;;;5066709;28;20061;-75
2021/06/08 08:21:27;;;;;;;7.57;4.50;;;25.30;62.00;;;;;;5065753;28;20033;-74
2021/06/08 08:23:53;;;;;;;9.00;4.35;;;25.40;61.30;;;;;;5069655;28;20039;-74
2021/06/08 08:26:19;;;;;;;5.43;4.50;;;25.40;60.90;;;;;;5076023;28;20028;-74
2021/06/08 08:28:47;;;;;;;5.20;4.70;;;25.30;60.50;;;;;;5090844;28;20021;-75
2021/06/08 08:31:19;;;;;;;4.78;4.30;;;25.40;60.60;;;;;;5075900;28;20025;-74
2021/06/08 08:33:45;;;;;;;6.43;4.78;;;25.40;60.60;;;;;;5075740;28;20029;-74
2021/06/08 08:36:12;;;;;;;4.88;4.22;;;25.70;60.40;;;;;;5090864;28;20033;-74
2021/06/08 08:38:38;;;;;;;5.20;4.18;;;26.00;59.50;;;;;;5081538;28;20032;-74
2021/06/08 08:41:05;;;;;;;5.22;3.78;;;26.30;59.20;;;;;;5077020;28;20082;-74
2021/06/08 08:43:32;;;;;;;7.47;4.35;;;26.70;58.40;;;;;;5074826;28;20037;-73
2021/06/08 08:45:58;;;;;;;5.53;3.97;;;26.90;57.80;;;;;;5075274;28;20029;-75
2021/06/08 08:48:27;;;;;;;4.43;3.70;;;27.20;56.80;;;;;;5074986;28;20165;-73
2021/06/08 08:50:54;;;;;;;6.47;3.50;;;27.40;56.20;;;;;;5074842;28;20067;-75
2021/06/08 08:53:22;;;;;;;6.00;3.40;;;27.60;55.40;;;;;;5075353;28;20029;-74
2021/06/08 08:55:47;;;;;;;5.93;3.45;;;27.90;54.90;;;;;;5074845;28;20020;-75
2021/06/08 08:58:16;;;;;;;4.20;3.47;;;28.10;54.50;;;;;;5074689;28;20031;-73
2021/06/08 09:00:43;;;;;;;4.60;3.55;;;28.40;54.10;;;;;;5079170;28;20115;-73
2021/06/08 09:03:13;;;;;;;5.18;3.60;;;28.70;53.70;;;;;;5083520;28;20105;-74
2021/06/08 09:05:38;;;;;;;3.60;3.30;;;29.20;53.40;;;;;;5074639;28;20039;-74
2021/06/08 09:08:06;;;;;;;3.20;2.90;;;29.50;52.30;;;;;;5074856;28;20028;-74
2021/06/08 09:10:34;;;;;;;3.30;3.00;;;29.90;51.20;;;;;;5071385;28;20536;-75
2021/06/08 09:13:00;;;;;;;3.50;3.20;;;30.20;50.90;;;;;;5062254;28;20021;-73
2021/06/08 09:15:26;;;;;;;3.38;3.05;;;30.60;50.10;;;;;;5063908;28;20039;-74
2021/06/08 09:17:57;;;;;;;3.63;3.33;;;31.00;49.40;;;;;;5066435;28;20032;-76
2021/06/08 09:20:24;;;;;;;4.18;3.00;;;31.30;48.70;;;;;;5062593;28;20378;-75
2021/06/08 09:22:58;;;;;;;3.15;2.80;;;31.30;48.20;;;;;;5063356;28;20036;-74
2021/06/08 09:25:49;;;;;;;11.38;3.40;;;31.00;47.90;;;;;;5062486;28;20104;-74
2021/06/08 09:28:31;;;;;;;3.10;2.80;;;30.60;48.60;;;;;;5073382;28;20036;-74
2021/06/08 09:30:58;;;;;;;4.15;3.50;;;30.30;49.20;;;;;;5074187;28;20129;-75
2021/06/08 09:33:29;;;;;;;3.45;3.00;;;30.10;48.90;;;;;;5074469;28;20039;-73
2021/06/08 09:36:02;;;;;;;4.65;3.08;;;30.10;48.90;;;;;;5073520;28;20510;-73
2021/06/08 09:38:40;;;;;;;3.20;3.00;;;30.00;48.80;;;;;;5062475;28;20108;-73
2021/06/08 09:41:22;;;;;;;7.35;3.10;;;29.80;48.80;;;;;;5070942;28;20494;-74
2021/06/08 09:43:59;;;;;;;3.70;3.40;;;29.90;49.00;;;;;;5062967;28;20041;-77
2021/06/08 09:46:33;;;;;;;3.10;2.67;;;30.10;48.70;;;;;;5063145;28;20025;-73
2021/06/08 09:49:03;;;;;;;;;;;31.00;48.70;;;;;;5062500;28;20140;-73
2021/06/08 09:51:54;;;;;;;6.03;3.10;;;32.10;49.50;;;;;;5061834;28;19938;-76
2021/06/08 09:54:32;;;;;;;3.20;2.70;;;33.40;47.00;;;;;;5061103;28;20059;-75
2021/06/08 09:57:14;;;;;;;2.70;2.50;;;33.80;45.00;;;;;;5061727;28;20121;-75
2021/06/08 09:59:57;;;;;;;4.60;2.95;;;34.10;44.40;;;;;;5062159;28;20032;-74
2021/06/08 10:05:22;;;;;;;5.03;2.92;;;36.10;42.90;;;;;;5063367;28;20040;-77
2021/06/08 10:07:52;;;;;;;3.45;2.42;;;36.90;41.90;;;;;;5062632;28;20513;-74
2021/06/08 10:10:24;;;;;;;4.10;3.30;;;37.10;41.20;;;;;;5064809;28;20031;-75
2021/06/08 10:13:10;;;;;;;3.08;2.88;;;37.20;41.80;;;;;;5073676;28;20394;-75
2021/06/08 10:15:37;;;;;;;3.05;2.63;;;38.00;41.80;;;;;;5073435;28;20032;-74
2021/06/08 10:18:07;;;;;;;6.53;3.05;;;38.90;41.20;;;;;;5073471;28;20032;-74
2021/06/08 10:20:39;;;;;;;4.05;3.38;;;38.60;40.30;;;;;;5072895;28;20036;-74
2021/06/08 10:23:19;;;;;;;3.88;3.38;;;37.50;40.60;;;;;;5073393;28;20440;-74
2021/06/08 10:25:45;;;;;;;4.25;3.85;;;36.10;41.50;;;;;;5073661;28;20024;-74
2021/06/08 10:31:35;;;;;;;5.75;3.63;;;33.70;43.80;;;;;;5085708;28;20182;-73
2021/06/08 10:34:04;;;;;;;3.88;2.50;;;32.50;45.30;;;;;;5073397;28;20035;-74
2021/06/08 10:36:30;;;;;;;4.18;2.58;;;31.60;45.10;;;;;;5085330;28;20462;-74
2021/06/08 10:38:57;;;;;;;5.28;2.75;;;30.90;45.00;;;;;;5093245;28;20024;-74
2021/06/08 10:41:23;;;;;;;5.32;3.30;;;30.20;45.00;;;;;;5093705;28;20576;-74
2021/06/08 10:43:49;;;;;;;3.67;2.60;;;29.50;45.60;;;;;;5093425;28;20036;-74
2021/06/08 10:46:28;;;;;;;3.22;2.78;;;29.00;46.30;;;;;;5109025;28;20028;-74
2021/06/08 10:48:54;;;;;;;5.72;2.80;;;28.50;47.30;;;;;;5092198;28;20028;-74
2021/06/08 10:51:22;;;;;;;4.50;2.95;;;28.00;47.80;;;;;;5093529;28;20024;-73
2021/06/08 10:53:56;;;;;;;10.13;3.63;;;27.40;48.40;;;;;;5093418;28;20052;-73
2021/06/08 10:56:31;;;;;;;4.63;3.13;;;26.80;51.30;;;;;;5093424;28;20086;-74
2021/06/08 10:59:03;;;;;;;7.07;3.30;;;26.10;52.30;;;;;;5054125;28;20433;-74
2021/06/08 11:01:39;;;;;;;5.85;3.72;;;25.40;53.40;;;;;;5052934;28;20096;-74
2021/06/08 11:04:11;;;;;;;7.18;3.60;;;24.90;55.10;;;;;;5051813;28;20119;-73
2021/06/08 11:06:37;;;;;;;5.70;3.13;;;24.50;56.80;;;;;;5076775;28;20024;-74
2021/06/08 11:09:15;;;;;;;4.50;3.75;;;24.30;58.30;;;;;;5093193;28;20378;-74
2021/06/08 11:11:58;;;;;;;5.70;4.15;;;24.10;59.50;;;;;;5093048;28;20028;-75
2021/06/08 11:14:30;;;;;;;5.05;4.55;;;24.10;60.90;;;;;;5092623;28;20027;-73
2021/06/08 11:17:03;;;;;;;7.40;4.95;;;24.10;61.80;;;;;;5093174;28;20032;-73
2021/06/08 11:19:41;;;;;;;6.75;5.07;;;24.20;62.40;;;;;;5092839;28;20038;-73
2021/06/08 11:22:07;;;;;;;8.32;4.65;;;24.40;62.70;;;;;;5092655;28;20035;-73
2021/06/08 11:24:38;;;;;;;6.75;4.90;;;24.70;63.10;;;;;;5086332;28;20028;-74
2021/06/08 11:27:05;;;;;;;5.32;3.95;;;24.90;62.70;;;;;;5081603;28;20131;-73
2021/06/08 11:29:52;;;;;;;4.20;3.75;;;25.30;61.60;;;;;;5090265;28;20024;-74
2021/06/08 11:32:30;;;;;;;5.75;4.03;;;26.00;60.80;;;;;;5088321;28;20032;-74
2021/06/08 11:35:29;;;;;;;4.07;3.78;;;27.30;60.10;;;;;;5072441;28;20039;-74
2021/06/08 11:38:13;;;;;;;4.50;3.50;;;28.70;58.30;;;;;;5048858;28;20041;-77
2021/06/08 11:40:39;;;;;;;3.78;3.47;;;29.70;55.50;;;;;;5052531;28;20039;-75
2021/06/08 11:43:26;;;;;;;3.47;3.15;;;30.30;53.70;;;;;;5052353;28;20033;-75
2021/06/08 11:46:29;;;;;;;3.80;3.40;;;30.70;52.70;;;;;;5063142;28;20454;-74
2021/06/08 11:49:05;;;;;;;3.33;2.50;;;31.00;52.00;;;;;;5067034;28;20036;-75
2021/06/08 11:51:36;;;;;;;3.95;2.70;;;31.10;50.00;;;;;;5076470;28;20105;-74
2021/06/08 11:54:10;;;;;;;3.83;2.33;;;31.30;49.90;;;;;;5076316;28;20033;-74
2021/06/08 11:56:48;;;;;;;4.95;2.38;;;31.60;48.90;;;;;;5073636;28;20025;-77
2021/06/08 11:59:15;;;;;;;2.33;2.22;;;31.80;48.20;;;;;;5076053;28;20071;-73
2021/06/08 12:01:47;;;;;;;5.30;2.38;;;32.10;47.90;;;;;;5076145;28;20116;-74
2021/06/08 12:04:15;;;;;;;2.30;2.15;;;32.30;47.10;;;;;;5075982;28;20371;-73
2021/06/08 12:07:03;;;;;;;3.50;2.42;;;32.50;46.40;;;;;;5075748;28;20382;-74
2021/06/08 12:09:34;;;;;;;2.75;2.05;;;32.40;46.00;;;;;;5076240;28;20028;-74
2021/06/08 12:12:09;;;;;;;2.67;2.40;;;32.50;46.30;;;;;;5075852;28;20378;-75
2021/06/08 12:14:36;;;;;;;3.65;2.60;;;33.00;45.60;;;;;;5075624;28;20036;-75
2021/06/08 12:17:03;;;;;;;2.67;2.30;;;33.50;45.10;;;;;;5075719;28;20028;-75
2021/06/08 12:19:34;;;;;;;2.60;2.40;;;33.90;44.70;;;;;;5076084;28;20024;-75
2021/06/08 12:22:03;;;;;;;3.55;2.33;;;34.50;43.80;;;;;;5090750;28;20033;-73
2021/06/08 12:24:29;;;;;;;2.35;2.15;;;35.20;43.20;;;;;;5075877;28;20352;-74
2021/06/08 12:27:01;;;;;;;2.38;2.25;;;36.10;43.00;;;;;;5076089;28;20024;-73
2021/06/08 12:33:06;;;;;;;2.85;2.00;;;37.50;40.70;;;;;;5080940;28;20051;-74
2021/06/08 12:35:38;;;;;;;2.47;2.28;;;38.20;40.20;;;;;;5096005;28;20028;-75
2021/06/08 12:38:14;;;;;;;3.53;2.28;;;38.20;39.80;;;;;;5094410;28;20032;-75
2021/06/08 12:40:40;;;;;;;2.50;2.30;;;38.30;39.20;;;;;;5095358;28;20031;-73
2021/06/08 12:43:07;;;;;;;3.35;2.25;;;38.50;39.20;;;;;;5095713;28;20032;-76
2021/06/08 12:45:33;;;;;;;3.45;2.20;;;38.70;38.80;;;;;;5095551;28;20039;-75
2021/06/08 12:47:59;;;;;;;3.38;2.00;;;38.90;37.90;;;;;;5095210;28;20111;-75
2021/06/08 12:50:33;;;;;;;2.42;2.00;;;39.30;37.20;;;;;;5095531;28;20107;-75
2021/06/08 12:53:04;;;;;;;2.15;2.03;;;39.60;36.40;;;;;;5095390;28;20032;-76
2021/06/08 12:55:32;;;;;;;3.83;2.10;;;39.90;36.40;;;;;;5086733;28;20437;-75
2021/06/08 12:58:02;;;;;;;2.45;2.10;;;40.30;36.20;;;;;;5090752;28;20024;-79
2021/06/08 13:00:32;;;;;;;2.88;2.33;;;40.60;35.90;;;;;;5094554;28;20028;-75
2021/06/08 13:03:01;;;;;;;2.55;2.20;;;40.90;35.80;;;;;;5095203;28;20020;-75
2021/06/08 13:05:28;;;;;;;3.42;2.80;;;41.10;35.30;;;;;;5095069;28;20028;-75
2021/06/08 13:07:55;;;;;;;2.55;2.35;;;40.90;35.60;;;;;;5110994;28;20024;-75